sensor_id;sensor_type;location;lat;lon;timestamp;temperature;humidity
32965;DHT22;19317;48.226;11.686;2023-04-03T00:03:18;3.30;99.90
32965;DHT22;19317;48.226;11.686;2023-04-03T00:08:09;3.40;99.90
32965;DHT22;19317;48.226;11.686;2023-04-03T00:12:59;3.50;99.90
32965;DHT22;19317;48.226;11.686;2023-04-03T00:17:50;3.30;99.90
32965;DHT22;19317;48.226;11.686;2023-04-03T00:22:40;3.30;99.90
32965;DHT22;19317;48.226;11.686;2023-04-03T00:27:31;3.30;99.90
32965;DHT22;19317;48.226;11.686;2023-04-03T00:32:21;3.40;99.90
32965;DHT22;19317;48.226;11.686;2023-04-03T00:37:12;3.40;99.90
32965;DHT22;19317;48.226;11.686;2023-04-03T00:42:02;3.40;99.90
32965;DHT22;19317;48.226;11.686;2023-04-03T00:46:53;3.50;99.90
32965;DHT22;19317;48.226;11.686;2023-04-03T00:51:43;3.50;99.90
32965;DHT22;19317;48.226;11.686;2023-04-03T00:56:36;3.40;99.90
32965;DHT22;19317;48.226;11.686;2023-04-03T01:01:28;3.40;99.90
32965;DHT22;19317;48.226;11.686;2023-04-03T01:06:23;3.50;99.90
32965;DHT22;19317;48.226;11.686;2023-04-03T01:11:14;3.50;99.90
32965;DHT22;19317;48.226;11.686;2023-04-03T01:16:05;3.30;99.90
32965;DHT22;19317;48.226;11.686;2023-04-03T01:21:40;3.40;99.90
32965;DHT22;19317;48.226;11.686;2023-04-03T01:26:33;3.50;99.90
32965;DHT22;19317;48.226;11.686;2023-04-03T01:36:30;3.50;99.90
32965;DHT22;19317;48.226;11.686;2023-04-03T01:41:21;3.50;99.90
32965;DHT22;19317;48.226;11.686;2023-04-03T01:46:12;3.60;99.90
32965;DHT22;19317;48.226;11.686;2023-04-03T01:51:02;3.70;99.90
32965;DHT22;19317;48.226;11.686;2023-04-03T01:55:53;3.40;99.90
32965;DHT22;19317;48.226;11.686;2023-04-03T02:00:43;3.50;99.90
32965;DHT22;19317;48.226;11.686;2023-04-03T02:05:33;3.50;99.90
32965;DHT22;19317;48.226;11.686;2023-04-03T02:10:24;3.40;99.90
32965;DHT22;19317;48.226;11.686;2023-04-03T02:15:15;3.50;99.90
32965;DHT22;19317;48.226;11.686;2023-04-03T02:20:06;3.40;99.90
32965;DHT22;19317;48.226;11.686;2023-04-03T02:24:56;3.40;99.90
32965;DHT22;19317;48.226;11.686;2023-04-03T02:29:47;3.50;99.90
32965;DHT22;19317;48.226;11.686;2023-04-03T02:34:37;3.60;99.90
32965;DHT22;19317;48.226;11.686;2023-04-03T02:39:28;3.60;99.90
32965;DHT22;19317;48.226;11.686;2023-04-03T02:44:19;3.40;99.90
32965;DHT22;19317;48.226;11.686;2023-04-03T02:49:10;3.30;99.90
32965;DHT22;19317;48.226;11.686;2023-04-03T02:54:01;3.40;99.90
32965;DHT22;19317;48.226;11.686;2023-04-03T02:58:51;3.30;99.90
32965;DHT22;19317;48.226;11.686;2023-04-03T03:03:42;3.40;99.90
32965;DHT22;19317;48.226;11.686;2023-04-03T03:08:33;3.50;99.90
32965;DHT22;19317;48.226;11.686;2023-04-03T03:13:23;3.40;99.90
32965;DHT22;19317;48.226;11.686;2023-04-03T03:18:14;3.40;99.90
32965;DHT22;19317;48.226;11.686;2023-04-03T03:23:04;3.50;99.90
32965;DHT22;19317;48.226;11.686;2023-04-03T03:27:55;3.50;99.90
32965;DHT22;19317;48.226;11.686;2023-04-03T03:32:45;3.40;99.90
32965;DHT22;19317;48.226;11.686;2023-04-03T03:37:36;3.30;99.90
32965;DHT22;19317;48.226;11.686;2023-04-03T03:42:26;3.10;99.90
32965;DHT22;19317;48.226;11.686;2023-04-03T03:47:16;3.20;99.90
32965;DHT22;19317;48.226;11.686;2023-04-03T03:52:07;3.10;99.90
32965;DHT22;19317;48.226;11.686;2023-04-03T03:56:57;3.20;99.90
32965;DHT22;19317;48.226;11.686;2023-04-03T04:01:48;3.20;99.90
32965;DHT22;19317;48.226;11.686;2023-04-03T04:06:38;3.20;99.90
32965;DHT22;19317;48.226;11.686;2023-04-03T04:11:29;3.20;99.90
32965;DHT22;19317;48.226;11.686;2023-04-03T04:16:19;3.20;99.90
32965;DHT22;19317;48.226;11.686;2023-04-03T04:21:10;3.30;99.90
32965;DHT22;19317;48.226;11.686;2023-04-03T04:26:00;3.30;99.90
32965;DHT22;19317;48.226;11.686;2023-04-03T04:30:51;3.30;99.90
32965;DHT22;19317;48.226;11.686;2023-04-03T04:35:42;3.20;99.90
32965;DHT22;19317;48.226;11.686;2023-04-03T04:40:32;3.20;99.90
32965;DHT22;19317;48.226;11.686;2023-04-03T04:45:23;3.10;99.90
32965;DHT22;19317;48.226;11.686;2023-04-03T04:50:13;3.20;99.90
32965;DHT22;19317;48.226;11.686;2023-04-03T04:55:04;3.20;99.90
32965;DHT22;19317;48.226;11.686;2023-04-03T04:59:55;3.10;99.90
32965;DHT22;19317;48.226;11.686;2023-04-03T05:04:45;3.00;99.90
32965;DHT22;19317;48.226;11.686;2023-04-03T05:09:36;3.10;99.90
32965;DHT22;19317;48.226;11.686;2023-04-03T05:14:26;3.10;99.90
32965;DHT22;19317;48.226;11.686;2023-04-03T05:19:17;3.40;99.90
32965;DHT22;19317;48.226;11.686;2023-04-03T05:24:07;3.20;99.90
32965;DHT22;19317;48.226;11.686;2023-04-03T05:28:58;3.20;99.90
32965;DHT22;19317;48.226;11.686;2023-04-03T05:33:49;3.20;99.90
32965;DHT22;19317;48.226;11.686;2023-04-03T05:38:39;3.30;99.90
32965;DHT22;19317;48.226;11.686;2023-04-03T05:43:30;3.20;99.90
32965;DHT22;19317;48.226;11.686;2023-04-03T05:48:20;3.30;99.90
32965;DHT22;19317;48.226;11.686;2023-04-03T05:53:19;3.20;99.90
32965;DHT22;19317;48.226;11.686;2023-04-03T05:58:11;3.20;99.90
32965;DHT22;19317;48.226;11.686;2023-04-03T06:03:02;3.40;99.90
32965;DHT22;19317;48.226;11.686;2023-04-03T06:07:52;3.30;99.90
32965;DHT22;19317;48.226;11.686;2023-04-03T06:12:43;3.20;99.90
32965;DHT22;19317;48.226;11.686;2023-04-03T06:17:33;3.60;99.90
32965;DHT22;19317;48.226;11.686;2023-04-03T06:22:24;3.70;99.90
32965;DHT22;19317;48.226;11.686;2023-04-03T06:27:14;3.40;99.90
32965;DHT22;19317;48.226;11.686;2023-04-03T06:32:05;3.50;99.90
32965;DHT22;19317;48.226;11.686;2023-04-03T06:36:55;3.50;99.90
32965;DHT22;19317;48.226;11.686;2023-04-03T06:41:46;3.50;99.90
32965;DHT22;19317;48.226;11.686;2023-04-03T06:46:37;3.50;99.90
32965;DHT22;19317;48.226;11.686;2023-04-03T06:51:28;3.40;99.90
32965;DHT22;19317;48.226;11.686;2023-04-03T06:56:19;3.40;99.90
32965;DHT22;19317;48.226;11.686;2023-04-03T07:01:12;3.40;99.90
32965;DHT22;19317;48.226;11.686;2023-04-03T07:06:04;3.40;99.90
32965;DHT22;19317;48.226;11.686;2023-04-03T07:10:54;3.40;99.90
32965;DHT22;19317;48.226;11.686;2023-04-03T07:15:45;3.40;99.90
32965;DHT22;19317;48.226;11.686;2023-04-03T07:20:35;3.50;99.90
32965;DHT22;19317;48.226;11.686;2023-04-03T07:25:26;3.50;99.90
32965;DHT22;19317;48.226;11.686;2023-04-03T07:30:16;3.50;99.90
32965;DHT22;19317;48.226;11.686;2023-04-03T07:35:07;3.50;99.90
32965;DHT22;19317;48.226;11.686;2023-04-03T07:39:58;3.40;99.90
32965;DHT22;19317;48.226;11.686;2023-04-03T07:44:48;3.40;99.90
32965;DHT22;19317;48.226;11.686;2023-04-03T07:49:38;3.50;99.90
32965;DHT22;19317;48.226;11.686;2023-04-03T07:54:29;3.40;99.90
32965;DHT22;19317;48.226;11.686;2023-04-03T07:59:19;3.50;99.90
32965;DHT22;19317;48.226;11.686;2023-04-03T08:04:10;3.50;99.90
32965;DHT22;19317;48.226;11.686;2023-04-03T08:09:01;3.50;99.90
32965;DHT22;19317;48.226;11.686;2023-04-03T08:13:52;3.40;99.90
32965;DHT22;19317;48.226;11.686;2023-04-03T08:18:43;3.50;99.90
32965;DHT22;19317;48.226;11.686;2023-04-03T08:23:33;3.60;99.90
32965;DHT22;19317;48.226;11.686;2023-04-03T08:28:24;3.60;99.90
32965;DHT22;19317;48.226;11.686;2023-04-03T08:33:15;3.70;99.90
32965;DHT22;19317;48.226;11.686;2023-04-03T08:38:05;3.70;99.90
32965;DHT22;19317;48.226;11.686;2023-04-03T08:48:19;3.80;99.90
32965;DHT22;19317;48.226;11.686;2023-04-03T08:53:21;4.00;99.90
32965;DHT22;19317;48.226;11.686;2023-04-03T08:58:16;4.00;99.90
32965;DHT22;19317;48.226;11.686;2023-04-03T09:03:12;4.10;99.90
32965;DHT22;19317;48.226;11.686;2023-04-03T09:08:26;4.20;99.90
32965;DHT22;19317;48.226;11.686;2023-04-03T09:13:34;4.30;99.90
32965;DHT22;19317;48.226;11.686;2023-04-03T09:18:34;4.20;99.90
32965;DHT22;19317;48.226;11.686;2023-04-03T09:28:22;4.30;99.90
32965;DHT22;19317;48.226;11.686;2023-04-03T09:33:12;4.40;99.90
32965;DHT22;19317;48.226;11.686;2023-04-03T09:43:18;4.30;99.90
32965;DHT22;19317;48.226;11.686;2023-04-03T09:53:12;4.20;99.90
32965;DHT22;19317;48.226;11.686;2023-04-03T09:58:32;4.20;99.90
32965;DHT22;19317;48.226;11.686;2023-04-03T10:03:34;4.10;99.90
32965;DHT22;19317;48.226;11.686;2023-04-03T10:08:29;4.10;99.90
32965;DHT22;19317;48.226;11.686;2023-04-03T10:13:20;4.10;99.90
32965;DHT22;19317;48.226;11.686;2023-04-03T10:23:21;4.00;99.90
32965;DHT22;19317;48.226;11.686;2023-04-03T10:28:31;4.00;99.90
32965;DHT22;19317;48.226;11.686;2023-04-03T10:38:32;3.80;99.90
32965;DHT22;19317;48.226;11.686;2023-04-03T10:53:52;3.70;99.90
32965;DHT22;19317;48.226;11.686;2023-04-03T10:58:52;3.80;99.90
32965;DHT22;19317;48.226;11.686;2023-04-03T11:03:53;3.90;99.90
32965;DHT22;19317;48.226;11.686;2023-04-03T11:08:55;3.60;99.90
32965;DHT22;19317;48.226;11.686;2023-04-03T11:19:20;4.20;99.90
32965;DHT22;19317;48.226;11.686;2023-04-03T11:24:32;4.30;99.90
32965;DHT22;19317;48.226;11.686;2023-04-03T11:29:26;4.50;99.90
32965;DHT22;19317;48.226;11.686;2023-04-03T11:34:34;4.50;99.90
32965;DHT22;19317;48.226;11.686;2023-04-03T11:39:29;4.60;99.90
32965;DHT22;19317;48.226;11.686;2023-04-03T11:44:36;4.70;99.90
32965;DHT22;19317;48.226;11.686;2023-04-03T11:54:46;4.90;99.90
32965;DHT22;19317;48.226;11.686;2023-04-03T11:59:37;5.10;99.90
32965;DHT22;19317;48.226;11.686;2023-04-03T12:04:28;5.20;99.90
32965;DHT22;19317;48.226;11.686;2023-04-03T12:14:30;5.60;99.90
32965;DHT22;19317;48.226;11.686;2023-04-03T12:19:29;5.40;99.90
32965;DHT22;19317;48.226;11.686;2023-04-03T12:24:30;5.40;99.90
32965;DHT22;19317;48.226;11.686;2023-04-03T12:29:28;5.30;99.90
32965;DHT22;19317;48.226;11.686;2023-04-03T12:45:20;5.70;99.90
32965;DHT22;19317;48.226;11.686;2023-04-03T12:50:24;6.50;99.90
32965;DHT22;19317;48.226;11.686;2023-04-03T12:55:16;6.10;99.90
32965;DHT22;19317;48.226;11.686;2023-04-03T13:05:18;5.80;99.90
32965;DHT22;19317;48.226;11.686;2023-04-03T13:15:13;5.60;99.90
32965;DHT22;19317;48.226;11.686;2023-04-03T13:20:29;5.60;99.90
32965;DHT22;19317;48.226;11.686;2023-04-03T13:25:21;5.60;99.90
32965;DHT22;19317;48.226;11.686;2023-04-03T13:30:32;5.70;99.90
32965;DHT22;19317;48.226;11.686;2023-04-03T13:35:40;6.10;99.90
32965;DHT22;19317;48.226;11.686;2023-04-03T13:40:31;6.70;99.90
32965;DHT22;19317;48.226;11.686;2023-04-03T13:45:25;7.10;99.90
32965;DHT22;19317;48.226;11.686;2023-04-03T13:55:32;6.90;99.90
32965;DHT22;19317;48.226;11.686;2023-04-03T14:05:28;6.70;99.90
32965;DHT22;19317;48.226;11.686;2023-04-03T14:10:18;6.80;99.90
32965;DHT22;19317;48.226;11.686;2023-04-03T14:15:24;6.80;99.90
32965;DHT22;19317;48.226;11.686;2023-04-03T14:20:18;7.30;99.90
32965;DHT22;19317;48.226;11.686;2023-04-03T14:25:09;7.60;99.90
32965;DHT22;19317;48.226;11.686;2023-04-03T14:30:00;7.80;99.90
32965;DHT22;19317;48.226;11.686;2023-04-03T14:34:51;7.60;99.90
32965;DHT22;19317;48.226;11.686;2023-04-03T14:39:42;7.00;99.90
32965;DHT22;19317;48.226;11.686;2023-04-03T14:44:33;6.80;99.90
32965;DHT22;19317;48.226;11.686;2023-04-03T14:49:26;6.50;99.90
32965;DHT22;19317;48.226;11.686;2023-04-03T14:54:19;6.30;99.90
32965;DHT22;19317;48.226;11.686;2023-04-03T14:59:12;6.50;99.90
32965;DHT22;19317;48.226;11.686;2023-04-03T15:04:10;6.70;99.90
32965;DHT22;19317;48.226;11.686;2023-04-03T15:09:02;7.00;99.90
32965;DHT22;19317;48.226;11.686;2023-04-03T15:13:52;7.50;99.90
32965;DHT22;19317;48.226;11.686;2023-04-03T15:18:44;7.60;99.90
32965;DHT22;19317;48.226;11.686;2023-04-03T15:23:34;8.10;99.90
32965;DHT22;19317;48.226;11.686;2023-04-03T15:33:20;8.60;99.30
32965;DHT22;19317;48.226;11.686;2023-04-03T15:38:11;8.10;97.30
32965;DHT22;19317;48.226;11.686;2023-04-03T15:43:02;8.50;98.90
32965;DHT22;19317;48.226;11.686;2023-04-03T15:47:52;8.20;99.10
32965;DHT22;19317;48.226;11.686;2023-04-03T15:52:43;8.00;99.90
32965;DHT22;19317;48.226;11.686;2023-04-03T15:57:33;7.80;98.80
32965;DHT22;19317;48.226;11.686;2023-04-03T16:02:24;8.00;98.80
32965;DHT22;19317;48.226;11.686;2023-04-03T16:07:14;8.90;99.90
32965;DHT22;19317;48.226;11.686;2023-04-03T16:12:05;8.60;97.10
32965;DHT22;19317;48.226;11.686;2023-04-03T16:16:57;8.70;96.40
32965;DHT22;19317;48.226;11.686;2023-04-03T16:21:48;8.50;95.50
32965;DHT22;19317;48.226;11.686;2023-04-03T16:26:38;8.60;95.10
32965;DHT22;19317;48.226;11.686;2023-04-03T16:31:31;8.30;94.90
32965;DHT22;19317;48.226;11.686;2023-04-03T16:36:24;8.00;98.20
32965;DHT22;19317;48.226;11.686;2023-04-03T16:41:14;7.90;97.90
32965;DHT22;19317;48.226;11.686;2023-04-03T16:46:05;7.50;98.10
32965;DHT22;19317;48.226;11.686;2023-04-03T16:50:55;6.90;98.50
32965;DHT22;19317;48.226;11.686;2023-04-03T16:55:46;6.90;99.80
32965;DHT22;19317;48.226;11.686;2023-04-03T17:00:36;6.90;99.90
32965;DHT22;19317;48.226;11.686;2023-04-03T17:05:27;6.60;99.90
32965;DHT22;19317;48.226;11.686;2023-04-03T17:10:18;6.30;99.90
32965;DHT22;19317;48.226;11.686;2023-04-03T17:15:09;6.00;99.90
32965;DHT22;19317;48.226;11.686;2023-04-03T17:19:59;5.80;99.90
32965;DHT22;19317;48.226;11.686;2023-04-03T17:24:50;5.60;99.90
32965;DHT22;19317;48.226;11.686;2023-04-03T17:29:40;5.50;99.90
32965;DHT22;19317;48.226;11.686;2023-04-03T17:34:31;5.40;99.90
32965;DHT22;19317;48.226;11.686;2023-04-03T17:39:21;5.40;99.90
32965;DHT22;19317;48.226;11.686;2023-04-03T17:44:12;5.30;99.90
32965;DHT22;19317;48.226;11.686;2023-04-03T17:49:03;5.30;99.90
32965;DHT22;19317;48.226;11.686;2023-04-03T17:53:53;5.20;99.90
32965;DHT22;19317;48.226;11.686;2023-04-03T17:58:44;5.10;99.90
32965;DHT22;19317;48.226;11.686;2023-04-03T18:03:34;5.10;99.90
32965;DHT22;19317;48.226;11.686;2023-04-03T18:08:26;5.10;99.90
32965;DHT22;19317;48.226;11.686;2023-04-03T18:13:16;5.10;99.90
32965;DHT22;19317;48.226;11.686;2023-04-03T18:18:06;5.00;99.90
32965;DHT22;19317;48.226;11.686;2023-04-03T18:22:58;5.00;99.90
32965;DHT22;19317;48.226;11.686;2023-04-03T18:27:48;4.90;99.90
32965;DHT22;19317;48.226;11.686;2023-04-03T18:32:39;4.70;99.90
32965;DHT22;19317;48.226;11.686;2023-04-03T18:37:29;4.60;99.90
32965;DHT22;19317;48.226;11.686;2023-04-03T18:42:22;4.50;99.90
32965;DHT22;19317;48.226;11.686;2023-04-03T18:47:13;4.50;99.90
32965;DHT22;19317;48.226;11.686;2023-04-03T18:52:04;4.30;99.90
32965;DHT22;19317;48.226;11.686;2023-04-03T18:56:54;4.10;99.90
32965;DHT22;19317;48.226;11.686;2023-04-03T19:01:45;4.10;99.90
32965;DHT22;19317;48.226;11.686;2023-04-03T19:06:36;4.00;99.90
32965;DHT22;19317;48.226;11.686;2023-04-03T19:11:26;4.00;99.90
32965;DHT22;19317;48.226;11.686;2023-04-03T19:16:17;3.50;99.90
32965;DHT22;19317;48.226;11.686;2023-04-03T19:21:07;3.10;99.90
32965;DHT22;19317;48.226;11.686;2023-04-03T19:26:00;3.50;99.90
32965;DHT22;19317;48.226;11.686;2023-04-03T19:30:51;3.00;99.90
32965;DHT22;19317;48.226;11.686;2023-04-03T19:35:41;3.30;99.90
32965;DHT22;19317;48.226;11.686;2023-04-03T19:40:32;3.30;99.90
32965;DHT22;19317;48.226;11.686;2023-04-03T19:45:22;3.20;99.90
32965;DHT22;19317;48.226;11.686;2023-04-03T19:50:13;3.30;99.90
32965;DHT22;19317;48.226;11.686;2023-04-03T19:55:04;3.00;99.90
32965;DHT22;19317;48.226;11.686;2023-04-03T19:59:54;3.20;99.90
32965;DHT22;19317;48.226;11.686;2023-04-03T20:04:45;3.40;99.90
32965;DHT22;19317;48.226;11.686;2023-04-03T20:09:35;3.50;99.90
32965;DHT22;19317;48.226;11.686;2023-04-03T20:14:26;3.50;99.90
32965;DHT22;19317;48.226;11.686;2023-04-03T20:19:16;3.40;99.90
32965;DHT22;19317;48.226;11.686;2023-04-03T20:24:07;3.50;99.90
32965;DHT22;19317;48.226;11.686;2023-04-03T20:29:00;3.30;99.90
32965;DHT22;19317;48.226;11.686;2023-04-03T20:33:51;3.10;99.90
32965;DHT22;19317;48.226;11.686;2023-04-03T20:38:41;2.90;99.90
32965;DHT22;19317;48.226;11.686;2023-04-03T20:43:32;2.90;99.90
32965;DHT22;19317;48.226;11.686;2023-04-03T20:48:23;2.90;99.90
32965;DHT22;19317;48.226;11.686;2023-04-03T20:53:13;3.20;99.90
32965;DHT22;19317;48.226;11.686;2023-04-03T20:58:04;2.80;99.90
32965;DHT22;19317;48.226;11.686;2023-04-03T21:02:55;2.70;99.90
32965;DHT22;19317;48.226;11.686;2023-04-03T21:23:40;2.90;99.90
32965;DHT22;19317;48.226;11.686;2023-04-03T21:28:30;2.90;99.90
32965;DHT22;19317;48.226;11.686;2023-04-03T21:33:21;2.70;99.90
32965;DHT22;19317;48.226;11.686;2023-04-03T21:38:11;2.40;99.90
32965;DHT22;19317;48.226;11.686;2023-04-03T21:43:01;2.30;99.90
32965;DHT22;19317;48.226;11.686;2023-04-03T21:47:52;2.40;99.90
32965;DHT22;19317;48.226;11.686;2023-04-03T21:52:42;2.00;99.90
32965;DHT22;19317;48.226;11.686;2023-04-03T21:57:33;2.20;99.90
32965;DHT22;19317;48.226;11.686;2023-04-03T22:02:23;2.10;99.90
32965;DHT22;19317;48.226;11.686;2023-04-03T22:07:13;2.10;99.90
32965;DHT22;19317;48.226;11.686;2023-04-03T22:12:04;2.10;99.90
32965;DHT22;19317;48.226;11.686;2023-04-03T22:16:55;2.20;99.90
32965;DHT22;19317;48.226;11.686;2023-04-03T22:21:45;2.30;99.90
32965;DHT22;19317;48.226;11.686;2023-04-03T22:26:36;2.30;99.90
32965;DHT22;19317;48.226;11.686;2023-04-03T22:31:26;1.80;99.90
32965;DHT22;19317;48.226;11.686;2023-04-03T22:36:16;1.80;99.90
32965;DHT22;19317;48.226;11.686;2023-04-03T22:41:07;1.50;99.90
32965;DHT22;19317;48.226;11.686;2023-04-03T22:46:02;1.60;99.90
32965;DHT22;19317;48.226;11.686;2023-04-03T22:50:53;1.30;99.90
32965;DHT22;19317;48.226;11.686;2023-04-03T22:55:52;1.30;99.90
32965;DHT22;19317;48.226;11.686;2023-04-03T23:00:42;1.10;99.90
32965;DHT22;19317;48.226;11.686;2023-04-03T23:05:33;1.30;99.90
32965;DHT22;19317;48.226;11.686;2023-04-03T23:10:23;1.40;99.90
32965;DHT22;19317;48.226;11.686;2023-04-03T23:15:14;1.70;99.90
32965;DHT22;19317;48.226;11.686;2023-04-03T23:20:05;1.70;99.90
32965;DHT22;19317;48.226;11.686;2023-04-03T23:24:56;1.80;99.90
32965;DHT22;19317;48.226;11.686;2023-04-03T23:29:46;1.40;99.90
32965;DHT22;19317;48.226;11.686;2023-04-03T23:34:36;1.50;99.90
32965;DHT22;19317;48.226;11.686;2023-04-03T23:39:27;1.50;99.90
32965;DHT22;19317;48.226;11.686;2023-04-03T23:44:17;1.40;99.90
32965;DHT22;19317;48.226;11.686;2023-04-03T23:49:08;1.40;99.90
32965;DHT22;19317;48.226;11.686;2023-04-03T23:53:58;1.40;99.90
32965;DHT22;19317;48.226;11.686;2023-04-03T23:58:49;1.40;99.90
